Time;durP1;ratioP1;P1;durP2;ratioP2;P2;SDS_P1;SDS_P2;PMS_P1;PMS_P2;Temp;Humidity;BMP_temperature;BMP_pressure;BME280_temperature;BME280_humidity;BME280_pressure;Samples;Min_cycle;Max_cycle;Signal;HPM_P1;HPM_P2
2021/10/13 00:01:44;;;;;;;0.90;0.68;;;;;;;;;;5071909;28;20021;-50
2021/10/13 00:04:10;;;;;;;1.70;0.50;;;;;;;;;;5071594;28;20495;-51
2021/10/13 00:06:36;;;;;;;0.80;0.80;;;;;;;;;;5070388;28;20036;-50
2021/10/13 00:09:01;;;;;;;1.33;0.65;;;;;;;;;;5071708;28;20033;-51
2021/10/13 00:11:27;;;;;;;1.83;1.10;;;;;;;;;;5072009;28;20476;-49
2021/10/13 00:13:53;;;;;;;3.40;0.85;;;;;;;;;;5071614;28;20040;-49
2021/10/13 00:16:19;;;;;;;0.88;0.52;;;;;;;;;;5071489;28;20071;-51
2021/10/13 00:18:45;;;;;;;1.20;0.70;;;;;;;;;;5068210;28;20032;-50
2021/10/13 00:21:11;;;;;;;0.75;0.60;;;;;;;;;;5067014;28;20140;-51
2021/10/13 00:23:38;;;;;;;1.95;0.93;;;;;;;;;;5072781;28;20095;-50
2021/10/13 00:26:03;;;;;;;2.72;0.70;;;;;;;;;;5074574;28;20028;-49
2021/10/13 00:28:29;;;;;;;1.40;0.80;;;;;;;;;;5070733;28;20025;-51
2021/10/13 00:30:55;;;;;;;1.48;0.93;;;;;;;;;;5075100;28;20474;-50
2021/10/13 00:33:21;;;;;;;1.13;0.70;;;;;;;;;;5075232;28;20028;-52
2021/10/13 00:35:47;;;;;;;0.65;0.50;;;;;;;;;;5074909;28;20024;-50
2021/10/13 00:38:13;;;;;;;1.25;0.70;;;;;;;;;;5073029;28;20542;-52
2021/10/13 00:40:39;;;;;;;1.38;0.75;;;;;;;;;;5075054;28;20051;-53
2021/10/13 00:43:06;;;;;;;1.05;0.80;;;;;;;;;;5077419;28;20456;-52
2021/10/13 00:45:32;;;;;;;0.75;0.60;;;;;;;;;;5072797;28;20067;-50
2021/10/13 00:47:58;;;;;;;1.67;0.80;;;;;;;;;;5074426;28;20025;-50
2021/10/13 00:50:24;;;;;;;0.60;0.60;;;;;;;;;;5075075;28;20025;-50
2021/10/13 00:52:50;;;;;;;1.50;0.70;;;;;;;;;;5073741;28;20082;-49
2021/10/13 00:55:20;;;;;;;0.98;0.70;;;;;;;;;;5072260;28;20036;-50
2021/10/13 00:57:47;;;;;;;4.20;0.90;;;;;;;;;;5072595;28;20464;-50
2021/10/13 01:00:13;;;;;;;0.50;0.50;;;;;;;;;;5074777;28;20021;-49
2021/10/13 01:02:47;;;;;;;1.02;0.55;;;;;;;;;;5071955;28;20091;-49
2021/10/13 01:05:27;;;;;;;1.75;0.70;;;;;;;;;;5070263;28;20119;-50
2021/10/13 01:07:57;;;;;;;2.72;0.90;;;;;;;;;;5074036;28;20387;-49
2021/10/13 01:10:32;;;;;;;0.98;0.85;;;;;;;;;;5074719;28;20031;-50
2021/10/13 01:13:03;;;;;;;0.77;0.60;;;;;;;;;;5074045;28;20735;-49
2021/10/13 01:15:35;;;;;;;1.13;0.90;;;;;;;;;;5072869;28;20107;-49
2021/10/13 01:18:20;;;;;;;0.85;0.60;;;;;;;;;;5073779;28;20025;-51
2021/10/13 01:20:58;;;;;;;0.90;0.73;;;;;;;;;;5071384;28;20373;-49
2021/10/13 01:23:31;;;;;;;1.58;0.80;;;;;;;;;;5074134;28;20107;-53
2021/10/13 01:26:11;;;;;;;1.52;0.80;;;;;;;;;;5069868;28;20031;-52
2021/10/13 01:28:39;;;;;;;1.15;0.80;;;;;;;;;;5066572;28;20476;-50
2021/10/13 01:31:34;;;;;;;1.15;0.65;;;;;;;;;;5074031;28;20132;-51
2021/10/13 01:34:08;;;;;;;1.40;0.77;;;;;;;;;;5061930;28;20032;-49
2021/10/13 01:36:38;;;;;;;3.03;0.80;;;;;;;;;;5064861;28;20028;-49
2021/10/13 01:39:05;;;;;;;1.60;1.02;;;;;;;;;;5073800;28;20500;-50
2021/10/13 01:41:34;;;;;;;1.08;0.80;;;;;;;;;;5073779;28;20020;-52
2021/10/13 01:44:01;;;;;;;2.65;0.80;;;;;;;;;;5078412;28;20078;-51
2021/10/13 01:46:27;;;;;;;2.40;0.80;;;;;;;;;;5070353;28;20033;-51
2021/10/13 01:48:54;;;;;;;1.10;0.90;;;;;;;;;;5073278;28;20078;-49
2021/10/13 01:51:20;;;;;;;0.93;0.70;;;;;;;;;;5074097;28;20090;-50
2021/10/13 01:53:47;;;;;;;1.77;1.00;;;;;;;;;;5073456;28;20346;-51
2021/10/13 01:56:15;;;;;;;1.65;0.80;;;;;;;;;;5072635;28;20445;-50
2021/10/13 01:58:42;;;;;;;0.73;0.65;;;;;;;;;;5073489;28;20027;-51
2021/10/13 02:01:11;;;;;;;1.58;0.90;;;;;;;;;;5073638;28;20479;-49
2021/10/13 02:03:37;;;;;;;1.05;0.90;;;;;;;;;;5073240;28;20392;-51
2021/10/13 02:06:03;;;;;;;2.08;0.80;;;;;;;;;;5070998;28;20031;-52
2021/10/13 02:08:30;;;;;;;3.22;1.08;;;;;;;;;;5072570;28;20524;-50
2021/10/13 02:10:57;;;;;;;2.08;0.70;;;;;;;;;;5073354;28;20107;-51
2021/10/13 02:13:23;;;;;;;1.67;0.88;;;;;;;;;;5073045;28;20052;-49
2021/10/13 02:15:51;;;;;;;1.95;0.80;;;;;;;;;;5072048;28;20384;-53
2021/10/13 02:18:19;;;;;;;1.02;0.65;;;;;;;;;;5064376;28;20036;-49
2021/10/13 02:20:46;;;;;;;1.30;0.70;;;;;;;;;;5072896;28;20097;-49
2021/10/13 02:23:12;;;;;;;4.10;0.98;;;;;;;;;;5073152;28;20039;-52
2021/10/13 02:25:40;;;;;;;1.90;0.82;;;;;;;;;;5070612;28;20586;-50
2021/10/13 02:28:10;;;;;;;0.80;0.70;;;;;;;;;;5071330;28;20488;-50
2021/10/13 02:30:36;;;;;;;1.88;1.10;;;;;;;;;;5073077;28;20175;-50
2021/10/13 02:33:02;;;;;;;1.13;0.82;;;;;;;;;;5072817;28;20044;-50
2021/10/13 02:35:28;;;;;;;1.25;0.60;;;;;;;;;;5068492;28;20029;-49
2021/10/13 02:37:54;;;;;;;2.28;1.02;;;;;;;;;;5072931;28;20192;-51
2021/10/13 02:40:20;;;;;;;2.45;0.80;;;;;;;;;;5072433;28;20101;-49
2021/10/13 02:42:46;;;;;;;0.75;0.60;;;;;;;;;;5072191;28;20597;-49
2021/10/13 02:45:12;;;;;;;1.75;0.85;;;;;;;;;;5068748;28;20404;-49
2021/10/13 02:47:41;;;;;;;1.45;0.80;;;;;;;;;;5065319;28;20025;-49
2021/10/13 02:50:13;;;;;;;1.05;0.82;;;;;;;;;;5071898;28;20132;-50
2021/10/13 02:52:39;;;;;;;0.93;0.82;;;;;;;;;;5072316;28;20024;-52
2021/10/13 02:55:19;;;;;;;1.23;0.77;;;;;;;;;;5069058;28;20021;-49
2021/10/13 02:57:59;;;;;;;0.63;0.63;;;;;;;;;;5068197;28;20017;-50
2021/10/13 03:00:26;;;;;;;1.00;0.73;;;;;;;;;;5064288;28;20035;-49
2021/10/13 03:02:57;;;;;;;2.28;0.98;;;;;;;;;;5072282;28;20025;-51
2021/10/13 03:05:24;;;;;;;1.65;1.23;;;;;;;;;;5067326;28;20167;-49
2021/10/13 03:07:51;;;;;;;1.35;0.88;;;;;;;;;;5071627;28;20032;-53
2021/10/13 03:10:17;;;;;;;1.33;0.80;;;;;;;;;;5071927;28;20483;-51
2021/10/13 03:12:51;;;;;;;3.30;1.02;;;;;;;;;;5071769;28;20115;-50
2021/10/13 03:15:18;;;;;;;1.27;0.80;;;;;;;;;;5068775;28;20037;-53
2021/10/13 03:17:46;;;;;;;1.60;1.17;;;;;;;;;;5066902;28;20029;-50
2021/10/13 03:20:13;;;;;;;1.10;0.80;;;;;;;;;;5067314;28;20052;-54
2021/10/13 03:22:40;;;;;;;4.53;0.95;;;;;;;;;;5072012;28;20016;-50
2021/10/13 03:25:06;;;;;;;1.40;1.00;;;;;;;;;;5071531;28;20025;-53
2021/10/13 03:27:32;;;;;;;1.75;1.05;;;;;;;;;;5072151;28;20074;-50
2021/10/13 03:29:58;;;;;;;3.13;1.00;;;;;;;;;;5071941;28;20032;-50
2021/10/13 03:32:24;;;;;;;1.60;0.98;;;;;;;;;;5072351;28;20075;-49
2021/10/13 03:34:50;;;;;;;1.10;0.90;;;;;;;;;;5071559;28;20564;-53
2021/10/13 03:37:17;;;;;;;2.28;1.20;;;;;;;;;;5071555;28;20029;-49
2021/10/13 03:39:46;;;;;;;2.67;1.15;;;;;;;;;;5071586;28;20032;-50
2021/10/13 03:42:12;;;;;;;1.27;0.90;;;;;;;;;;5072026;28;20647;-49
2021/10/13 03:44:38;;;;;;;1.30;1.05;;;;;;;;;;5080726;28;20021;-52
2021/10/13 03:47:05;;;;;;;2.22;1.27;;;;;;;;;;5066594;28;20024;-54
2021/10/13 03:49:31;;;;;;;1.48;1.10;;;;;;;;;;5069449;28;20032;-50
2021/10/13 03:51:57;;;;;;;1.65;1.13;;;;;;;;;;5071581;28;20036;-52
2021/10/13 03:54:22;;;;;;;1.63;0.90;;;;;;;;;;5070414;28;20043;-51
2021/10/13 03:56:48;;;;;;;2.67;1.30;;;;;;;;;;5070735;28;20098;-51
2021/10/13 03:59:14;;;;;;;2.33;1.17;;;;;;;;;;5074021;28;20381;-54
2021/10/13 04:01:40;;;;;;;1.70;0.98;;;;;;;;;;5075873;28;20060;-50
2021/10/13 04:04:07;;;;;;;1.13;1.00;;;;;;;;;;5073646;28;20058;-50
2021/10/13 04:06:33;;;;;;;1.13;0.88;;;;;;;;;;5075296;28;20107;-50
2021/10/13 04:08:59;;;;;;;1.55;1.13;;;;;;;;;;5075699;28;20512;-50
2021/10/13 04:11:25;;;;;;;1.58;1.15;;;;;;;;;;5075388;28;20029;-50
2021/10/13 04:13:51;;;;;;;3.45;1.40;;;;;;;;;;5075700;28;20021;-51
2021/10/13 04:16:17;;;;;;;2.20;1.48;;;;;;;;;;5071153;28;20028;-49
2021/10/13 04:18:43;;;;;;;1.73;1.17;;;;;;;;;;5067152;28;20484;-54
2021/10/13 04:21:09;;;;;;;2.95;1.42;;;;;;;;;;5075719;28;20120;-51
2021/10/13 04:23:35;;;;;;;2.65;1.20;;;;;;;;;;5075632;28;20480;-52
2021/10/13 04:26:01;;;;;;;1.80;1.40;;;;;;;;;;5066556;28;20028;-50
2021/10/13 04:28:27;;;;;;;1.85;1.27;;;;;;;;;;5073156;28;20085;-49
2021/10/13 04:30:53;;;;;;;4.75;1.77;;;;;;;;;;5074501;28;20029;-49
2021/10/13 04:33:19;;;;;;;2.15;1.52;;;;;;;;;;5074929;28;20095;-52
2021/10/13 04:35:45;;;;;;;3.35;1.85;;;;;;;;;;5073974;28;20487;-50
2021/10/13 04:38:11;;;;;;;4.38;1.35;;;;;;;;;;5074523;28;20652;-49
2021/10/13 04:40:37;;;;;;;3.80;1.60;;;;;;;;;;5069565;28;20055;-49
2021/10/13 04:43:03;;;;;;;2.42;1.55;;;;;;;;;;5078891;28;20021;-49
2021/10/13 04:45:29;;;;;;;2.08;1.30;;;;;;;;;;5076237;28;20020;-50
2021/10/13 04:47:55;;;;;;;2.72;1.40;;;;;;;;;;5058766;28;20047;-49
2021/10/13 04:50:21;;;;;;;3.70;1.90;;;;;;;;;;5068586;28;20024;-51
2021/10/13 04:52:47;;;;;;;4.13;1.55;;;;;;;;;;5058861;28;20040;-50
2021/10/13 04:55:13;;;;;;;4.13;1.85;;;;;;;;;;5071064;28;20029;-53
2021/10/13 04:57:39;;;;;;;2.00;1.33;;;;;;;;;;5066424;28;20350;-52
2021/10/13 05:00:05;;;;;;;3.92;1.83;;;;;;;;;;5073149;28;20036;-53
2021/10/13 05:02:31;;;;;;;3.50;2.00;;;;;;;;;;5074627;28;20024;-51
2021/10/13 05:04:57;;;;;;;4.57;1.92;;;;;;;;;;5074337;28;20036;-51
2021/10/13 05:07:23;;;;;;;2.88;1.83;;;;;;;;;;5067431;28;20025;-50
2021/10/13 05:09:49;;;;;;;2.65;1.65;;;;;;;;;;5072942;28;20044;-52
2021/10/13 05:12:15;;;;;;;4.00;1.85;;;;;;;;;;5074510;28;20478;-50
2021/10/13 05:14:41;;;;;;;3.33;1.88;;;;;;;;;;5073158;28;20123;-49
2021/10/13 05:17:07;;;;;;;3.20;1.95;;;;;;;;;;5065842;28;20487;-50
2021/10/13 05:19:33;;;;;;;3.40;2.03;;;;;;;;;;5072442;28;20048;-55
2021/10/13 05:21:59;;;;;;;2.30;1.80;;;;;;;;;;5074123;28;20538;-50
2021/10/13 05:24:25;;;;;;;2.88;1.77;;;;;;;;;;5074301;28;20043;-50
2021/10/13 05:26:51;;;;;;;5.45;2.33;;;;;;;;;;5070736;28;20024;-50
2021/10/13 05:29:17;;;;;;;3.28;2.10;;;;;;;;;;5074033;28;20031;-51
2021/10/13 05:31:43;;;;;;;4.82;3.03;;;;;;;;;;5072646;28;20024;-52
2021/10/13 05:34:09;;;;;;;4.13;2.05;;;;;;;;;;5074120;28;20092;-51
2021/10/13 05:36:35;;;;;;;4.65;2.47;;;;;;;;;;5066495;28;20063;-51
2021/10/13 05:39:01;;;;;;;3.78;2.22;;;;;;;;;;5073988;28;20060;-50
2021/10/13 05:41:27;;;;;;;5.78;2.80;;;;;;;;;;5074203;28;20070;-51
2021/10/13 05:43:53;;;;;;;4.25;2.42;;;;;;;;;;5081722;28;20028;-51
2021/10/13 05:46:19;;;;;;;4.75;2.67;;;;;;;;;;5071570;28;20040;-50
2021/10/13 05:48:45;;;;;;;5.20;2.90;;;;;;;;;;5073946;28;20016;-53
2021/10/13 05:51:11;;;;;;;5.05;2.88;;;;;;;;;;5073455;28;20060;-51
2021/10/13 05:53:37;;;;;;;4.13;2.35;;;;;;;;;;5073373;28;20177;-51
2021/10/13 05:56:03;;;;;;;4.63;2.53;;;;;;;;;;5070175;28;20417;-51
2021/10/13 05:58:29;;;;;;;5.53;3.22;;;;;;;;;;5072743;28;20031;-53
2021/10/13 06:00:56;;;;;;;6.97;3.17;;;;;;;;;;5073599;28;20103;-54
2021/10/13 06:03:22;;;;;;;4.22;2.45;;;;;;;;;;5062904;28;20024;-54
2021/10/13 06:05:48;;;;;;;4.53;2.50;;;;;;;;;;5058239;28;20349;-53
2021/10/13 06:08:14;;;;;;;5.35;2.70;;;;;;;;;;5066030;28;20365;-50
2021/10/13 06:10:40;;;;;;;4.43;2.42;;;;;;;;;;5063637;28;20036;-52
2021/10/13 06:13:06;;;;;;;3.22;2.55;;;;;;;;;;5072579;28;20032;-50
2021/10/13 06:15:36;;;;;;;4.93;2.65;;;;;;;;;;5065441;28;20027;-49
2021/10/13 06:18:06;;;;;;;5.40;3.03;;;;;;;;;;5071631;28;20104;-50
2021/10/13 06:20:33;;;;;;;6.40;2.65;;;;;;;;;;5072914;28;20041;-53
2021/10/13 06:22:59;;;;;;;5.05;2.75;;;;;;;;;;5072589;28;20051;-49
2021/10/13 06:25:25;;;;;;;5.80;2.92;;;;;;;;;;5071434;28;20029;-51
2021/10/13 06:27:51;;;;;;;6.25;2.75;;;;;;;;;;5072365;28;20620;-49
2021/10/13 06:30:17;;;;;;;5.95;2.70;;;;;;;;;;5072632;28;20028;-49
2021/10/13 06:32:43;;;;;;;5.00;3.13;;;;;;;;;;5073054;28;20408;-52
2021/10/13 06:35:09;;;;;;;8.93;4.53;;;;;;;;;;5071496;28;20029;-49
2021/10/13 06:37:35;;;;;;;4.68;2.83;;;;;;;;;;5069270;28;20124;-51
2021/10/13 06:40:01;;;;;;;5.78;3.00;;;;;;;;;;5071593;28;20025;-50
2021/10/13 06:42:27;;;;;;;5.32;2.92;;;;;;;;;;5072305;28;20133;-50
2021/10/13 06:44:53;;;;;;;7.53;3.97;;;;;;;;;;5073633;28;20099;-53
2021/10/13 06:47:19;;;;;;;10.00;4.35;;;;;;;;;;5061972;28;20040;-50
2021/10/13 06:49:45;;;;;;;6.78;3.65;;;;;;;;;;5065037;28;20044;-49
2021/10/13 06:52:11;;;;;;;6.82;3.45;;;;;;;;;;5068418;28;20165;-49
2021/10/13 06:54:37;;;;;;;7.10;3.35;;;;;;;;;;5072018;28;20103;-50
2021/10/13 06:57:03;;;;;;;6.38;3.25;;;;;;;;;;5071699;28;20036;-53
2021/10/13 06:59:29;;;;;;;7.07;3.95;;;;;;;;;;5061646;28;20025;-51
2021/10/13 07:01:55;;;;;;;10.07;6.55;;;;;;;;;;5069477;28;20442;-52
2021/10/13 07:04:21;;;;;;;6.45;3.80;;;;;;;;;;5072157;28;20074;-50
2021/10/13 07:06:47;;;;;;;11.27;4.60;;;;;;;;;;5067119;28;20074;-49
2021/10/13 07:09:13;;;;;;;6.88;4.30;;;;;;;;;;5071170;28;20029;-53
2021/10/13 07:11:39;;;;;;;8.27;3.80;;;;;;;;;;5072001;28;20028;-54
2021/10/13 07:14:06;;;;;;;10.52;4.50;;;;;;;;;;5070618;28;20158;-54
2021/10/13 07:16:32;;;;;;;8.35;3.65;;;;;;;;;;5071512;28;20483;-54
2021/10/13 07:18:59;;;;;;;11.07;4.43;;;;;;;;;;5060213;28;20051;-51
2021/10/13 07:21:25;;;;;;;10.48;4.25;;;;;;;;;;5067799;28;20047;-50
2021/10/13 07:23:51;;;;;;;7.93;4.35;;;;;;;;;;5067602;28;20111;-53
2021/10/13 07:26:17;;;;;;;7.95;4.07;;;;;;;;;;5064918;28;20035;-52
2021/10/13 07:28:43;;;;;;;8.60;4.72;;;;;;;;;;5074998;28;20373;-51
2021/10/13 07:31:10;;;;;;;9.45;4.45;;;;;;;;;;5065834;28;20033;-50
2021/10/13 07:33:36;;;;;;;7.82;4.68;;;;;;;;;;5062459;28;20032;-51
2021/10/13 07:36:02;;;;;;;9.40;4.53;;;;;;;;;;5071527;28;20440;-52
2021/10/13 07:38:29;;;;;;;10.07;4.57;;;;;;;;;;5069171;28;20013;-51
2021/10/13 07:40:57;;;;;;;12.60;5.15;;;;;;;;;;5070790;28;20452;-53
2021/10/13 07:43:23;;;;;;;8.13;4.10;;;;;;;;;;5074816;28;20043;-53
2021/10/13 07:45:50;;;;;;;8.52;3.83;;;;;;;;;;5072064;28;20020;-50
2021/10/13 07:48:16;;;;;;;9.40;3.90;;;;;;;;;;5069425;28;20443;-54
2021/10/13 07:50:42;;;;;;;8.88;4.18;;;;;;;;;;5064987;28;20036;-52
2021/10/13 07:53:08;;;;;;;8.55;3.63;;;;;;;;;;5058647;28;20366;-51
2021/10/13 07:55:34;;;;;;;8.27;4.25;;;;;;;;;;5062293;28;20455;-51
2021/10/13 07:58:00;;;;;;;7.90;4.30;;;;;;;;;;5065490;28;20017;-52
2021/10/13 08:00:26;;;;;;;6.20;3.55;;;;;;;;;;5071857;28;20112;-51
2021/10/13 08:02:52;;;;;;;8.48;4.72;;;;;;;;;;5067512;28;20020;-50
2021/10/13 08:05:19;;;;;;;6.15;3.90;;;;;;;;;;5071313;28;20028;-50
2021/10/13 08:07:45;;;;;;;10.70;4.65;;;;;;;;;;5064303;28;20048;-53
2021/10/13 08:10:11;;;;;;;10.25;4.40;;;;;;;;;;5065391;28;20060;-53
2021/10/13 08:12:37;;;;;;;6.07;3.47;;;;;;;;;;5069168;28;20028;-51
2021/10/13 08:15:03;;;;;;;9.05;4.07;;;;;;;;;;5071691;28;20028;-55
2021/10/13 08:17:30;;;;;;;7.85;3.38;;;;;;;;;;5071441;28;20115;-52
2021/10/13 08:19:56;;;;;;;9.48;3.65;;;;;;;;;;5067308;28;20508;-53
2021/10/13 08:22:22;;;;;;;8.63;3.83;;;;;;;;;;5067584;28;20090;-54
2021/10/13 08:24:48;;;;;;;9.32;4.00;;;;;;;;;;5067792;28;20029;-50
2021/10/13 08:27:14;;;;;;;7.50;4.10;;;;;;;;;;5071611;28;20052;-54
2021/10/13 08:29:40;;;;;;;5.57;3.22;;;;;;;;;;5070647;28;20063;-51
2021/10/13 08:32:07;;;;;;;6.82;3.30;;;;;;;;;;5068174;28;20392;-51
2021/10/13 08:34:33;;;;;;;6.78;3.42;;;;;;;;;;5069470;28;20115;-52
2021/10/13 08:36:59;;;;;;;8.95;3.08;;;;;;;;;;5070358;28;20666;-51
2021/10/13 08:39:25;;;;;;;9.10;3.30;;;;;;;;;;5065578;28;20043;-51
2021/10/13 08:41:51;;;;;;;5.95;3.20;;;;;;;;;;5068418;28;20365;-50
2021/10/13 08:44:17;;;;;;;7.22;2.92;;;;;;;;;;5081699;28;20028;-54
2021/10/13 08:46:44;;;;;;;5.43;2.78;;;;;;;;;;5075354;28;20028;-50
2021/10/13 08:49:10;;;;;;;7.18;2.67;;;;;;;;;;5067089;28;20100;-50
2021/10/13 08:51:36;;;;;;;6.03;3.05;;;;;;;;;;5074710;28;20024;-52
2021/10/13 08:54:02;;;;;;;5.00;2.50;;;;;;;;;;5064172;28;20458;-52
2021/10/13 08:56:28;;;;;;;7.40;2.70;;;;;;;;;;5073991;28;20025;-55
2021/10/13 08:58:54;;;;;;;8.32;2.47;;;;;;;;;;5068182;28;20388;-51
2021/10/13 09:01:20;;;;;;;4.55;2.63;;;;;;;;;;5074543;28;20029;-53
2021/10/13 09:03:47;;;;;;;5.20;2.30;;;;;;;;;;5074581;28;20039;-54
2021/10/13 09:06:14;;;;;;;3.88;2.17;;;;;;;;;;5069690;28;20076;-55
2021/10/13 09:08:59;;;;;;;6.03;2.50;;;;;;;;;;5073515;28;20482;-51
2021/10/13 09:11:45;;;;;;;5.93;1.73;;;;;;;;;;5074196;28;20028;-50
2021/10/13 09:14:22;;;;;;;3.42;1.98;;;;;;;;;;5071342;28;20032;-53
2021/10/13 09:16:49;;;;;;;5.15;2.10;;;;;;;;;;5067070;28;20025;-54
2021/10/13 09:19:15;;;;;;;2.85;1.75;;;;;;;;;;5071392;28;20048;-53
2021/10/13 09:21:51;;;;;;;3.83;1.70;;;;;;;;;;5071286;28;20020;-51
2021/10/13 09:24:18;;;;;;;3.65;1.90;;;;;;;;;;5066623;28;20074;-51
2021/10/13 09:26:44;;;;;;;2.83;1.50;;;;;;;;;;5072394;28;20063;-52
2021/10/13 09:29:10;;;;;;;3.22;1.50;;;;;;;;;;5073591;28;20063;-52
2021/10/13 09:31:36;;;;;;;2.63;1.25;;;;;;;;;;5069635;28;20029;-51
2021/10/13 09:34:06;;;;;;;4.22;1.65;;;;;;;;;;5074166;28;20465;-50
2021/10/13 09:36:33;;;;;;;2.28;1.02;;;;;;;;;;5073566;28;20028;-51
2021/10/13 09:39:16;;;;;;;4.30;1.70;;;;;;;;;;5069279;28;20052;-53
2021/10/13 09:41:58;;;;;;;2.58;1.55;;;;;;;;;;5069294;28;20119;-50
2021/10/13 09:44:25;;;;;;;2.13;1.02;;;;;;;;;;5080918;28;20021;-51
2021/10/13 09:46:51;;;;;;;3.90;1.58;;;;;;;;;;5071049;28;20127;-50
2021/10/13 09:49:27;;;;;;;2.83;1.75;;;;;;;;;;5069025;28;20039;-52
2021/10/13 09:52:00;;;;;;;1.77;1.27;;;;;;;;;;5071855;28;20031;-53
2021/10/13 09:54:26;;;;;;;2.77;1.27;;;;;;;;;;5072385;28;20025;-54
2021/10/13 09:56:52;;;;;;;2.63;1.20;;;;;;;;;;5074950;28;20033;-52
2021/10/13 09:59:19;;;;;;;3.05;1.40;;;;;;;;;;5071344;28;20158;-53
2021/10/13 10:01:55;;;;;;;2.53;1.10;;;;;;;;;;5068219;28;20159;-54
2021/10/13 10:04:26;;;;;;;3.50;1.25;;;;;;;;;;5064608;28;20664;-50
2021/10/13 10:06:56;;;;;;;4.25;1.48;;;;;;;;;;5073386;28;20028;-52
2021/10/13 10:09:23;;;;;;;2.30;1.25;;;;;;;;;;5071073;28;20108;-50
2021/10/13 10:11:50;;;;;;;3.70;1.13;;;;;;;;;;5069330;28;20047;-50
2021/10/13 10:14:35;;;;;;;5.43;1.08;;;;;;;;;;5073631;28;20058;-51
2021/10/13 10:17:03;;;;;;;2.00;0.75;;;;;;;;;;5073375;28;20028;-51
2021/10/13 10:19:30;;;;;;;1.90;1.10;;;;;;;;;;5072779;28;20044;-50
2021/10/13 10:21:57;;;;;;;4.65;1.15;;;;;;;;;;5066208;28;20020;-51
2021/10/13 10:24:27;;;;;;;1.55;0.73;;;;;;;;;;5073043;28;20036;-51
2021/10/13 10:27:13;;;;;;;1.88;0.85;;;;;;;;;;5068943;28;20499;-53
2021/10/13 10:29:39;;;;;;;2.28;1.20;;;;;;;;;;5071115;28;20017;-51
2021/10/13 10:32:14;;;;;;;1.98;0.93;;;;;;;;;;5072659;28;20039;-51
2021/10/13 10:34:40;;;;;;;2.13;1.10;;;;;;;;;;5071339;28;20448;-50
2021/10/13 10:37:06;;;;;;;3.08;1.30;;;;;;;;;;5072886;28;20499;-50
2021/10/13 10:39:50;;;;;;;2.22;1.23;;;;;;;;;;5068977;28;20017;-53
2021/10/13 10:42:35;;;;;;;2.47;1.48;;;;;;;;;;5064939;28;20030;-53
2021/10/13 10:45:09;;;;;;;2.88;1.88;;;;;;;;;;5075803;28;20388;-54
2021/10/13 10:47:52;;;;;;;3.13;1.70;;;;;;;;;;5072807;28;20111;-50
2021/10/13 10:50:28;;;;;;;3.17;1.90;;;;;;;;;;5069331;28;20029;-53
2021/10/13 10:53:14;;;;;;;4.07;2.28;;;;;;;;;;5061663;28;20351;-51
2021/10/13 10:55:41;;;;;;;4.78;1.90;;;;;;;;;;5061702;28;20043;-53
2021/10/13 10:58:19;;;;;;;4.30;2.10;;;;;;;;;;5071882;28;20024;-52
2021/10/13 11:00:46;;;;;;;3.65;1.85;;;;;;;;;;5070674;28;20147;-50
2021/10/13 11:03:22;;;;;;;3.00;1.50;;;;;;;;;;5066572;28;20041;-51
2021/10/13 11:05:48;;;;;;;2.20;1.42;;;;;;;;;;5070432;28;20028;-50
2021/10/13 11:08:15;;;;;;;4.57;2.00;;;;;;;;;;5072099;28;20033;-52
2021/10/13 11:10:42;;;;;;;4.65;2.25;;;;;;;;;;5067545;28;20081;-51
2021/10/13 11:13:08;;;;;;;2.20;1.40;;;;;;;;;;5072250;28;20029;-52
2021/10/13 11:15:38;;;;;;;2.40;1.42;;;;;;;;;;5064364;28;20043;-52
2021/10/13 11:18:15;;;;;;;4.55;1.73;;;;;;;;;;5072365;28;20024;-50
2021/10/13 11:20:41;;;;;;;2.53;1.33;;;;;;;;;;5070196;28;20485;-53
2021/10/13 11:23:08;;;;;;;4.25;1.40;;;;;;;;;;5072372;28;20116;-52
2021/10/13 11:25:34;;;;;;;2.30;1.30;;;;;;;;;;5069148;28;20020;-55
2021/10/13 11:28:07;;;;;;;1.85;1.10;;;;;;;;;;5071587;28;20020;-55
2021/10/13 11:30:51;;;;;;;3.17;1.20;;;;;;;;;;5069798;28;20028;-53
2021/10/13 11:33:19;;;;;;;1.42;0.77;;;;;;;;;;5070614;28;20858;-53
2021/10/13 11:35:48;;;;;;;1.85;0.70;;;;;;;;;;5067939;28;20091;-50
2021/10/13 11:38:15;;;;;;;1.38;0.80;;;;;;;;;;5070168;28;20453;-55
2021/10/13 11:40:41;;;;;;;1.13;0.80;;;;;;;;;;5070193;28;20031;-55
2021/10/13 11:43:09;;;;;;;2.83;1.02;;;;;;;;;;5071861;28;20024;-51
2021/10/13 11:45:35;;;;;;;1.02;0.60;;;;;;;;;;5070467;28;20107;-52
2021/10/13 11:48:01;;;;;;;3.35;0.90;;;;;;;;;;5071297;28;20027;-53
2021/10/13 11:50:29;;;;;;;3.88;1.10;;;;;;;;;;5068688;28;20028;-50
2021/10/13 11:52:56;;;;;;;2.33;0.77;;;;;;;;;;5071846;28;20052;-51
2021/10/13 11:55:26;;;;;;;2.70;1.10;;;;;;;;;;5066758;28;20025;-51
2021/10/13 11:58:18;;;;;;;2.33;0.95;;;;;;;;;;5066010;28;20032;-52
2021/10/13 12:00:47;;;;;;;2.35;1.00;;;;;;;;;;5048783;28;20131;-50
2021/10/13 12:03:14;;;;;;;1.58;0.73;;;;;;;;;;5066872;28;20028;-54
2021/10/13 12:05:43;;;;;;;3.55;0.93;;;;;;;;;;5065570;28;20516;-51
2021/10/13 12:08:17;;;;;;;2.55;0.70;;;;;;;;;;5074805;28;20031;-51
2021/10/13 12:10:49;;;;;;;2.25;0.70;;;;;;;;;;5082344;28;20032;-52
2021/10/13 12:13:17;;;;;;;0.80;0.68;;;;;;;;;;5053693;28;20053;-53
2021/10/13 12:15:44;;;;;;;1.13;0.60;;;;;;;;;;5062707;28;20104;-52
2021/10/13 12:18:11;;;;;;;0.98;0.60;;;;;;;;;;5066817;28;20464;-54
2021/10/13 12:20:37;;;;;;;1.33;0.68;;;;;;;;;;5071859;28;20060;-52
2021/10/13 12:23:11;;;;;;;1.13;0.60;;;;;;;;;;5071940;28;20020;-56
2021/10/13 12:25:37;;;;;;;1.30;0.60;;;;;;;;;;5071526;28;20033;-53
2021/10/13 12:28:03;;;;;;;0.80;0.40;;;;;;;;;;5066812;28;20147;-51
2021/10/13 12:30:33;;;;;;;0.95;0.40;;;;;;;;;;5063099;28;20461;-54
2021/10/13 12:33:06;;;;;;;0.60;0.32;;;;;;;;;;5074083;28;20117;-53
2021/10/13 12:35:32;;;;;;;0.85;0.45;;;;;;;;;;5066141;28;20021;-56
2021/10/13 12:37:59;;;;;;;1.33;0.50;;;;;;;;;;5064941;28;20032;-53
2021/10/13 12:40:25;;;;;;;1.73;1.08;;;;;;;;;;5071859;28;20035;-55
2021/10/13 12:42:53;;;;;;;1.00;0.40;;;;;;;;;;5073335;28;20035;-52
2021/10/13 12:45:22;;;;;;;0.52;0.38;;;;;;;;;;5076072;28;20032;-50
2021/10/13 12:47:48;;;;;;;1.70;0.50;;;;;;;;;;5069735;28;20039;-52
2021/10/13 12:50:17;;;;;;;0.70;0.35;;;;;;;;;;5075988;28;20446;-54
2021/10/13 12:52:43;;;;;;;1.27;0.40;;;;;;;;;;5064484;28;20036;-51
2021/10/13 12:55:09;;;;;;;0.40;0.30;;;;;;;;;;5068324;28;20027;-54
2021/10/13 12:57:35;;;;;;;1.00;0.47;;;;;;;;;;5084422;28;20695;-53
2021/10/13 13:00:01;;;;;;;3.40;0.50;;;;;;;;;;5075306;28;20036;-51
2021/10/13 13:02:27;;;;;;;0.50;0.30;;;;;;;;;;5079043;28;20021;-50
2021/10/13 13:04:55;;;;;;;0.85;0.32;;;;;;;;;;5076061;28;20025;-51
2021/10/13 13:07:21;;;;;;;0.68;0.40;;;;;;;;;;5074569;28;20020;-50
2021/10/13 13:09:47;;;;;;;1.08;0.47;;;;;;;;;;5067040;28;20033;-50
2021/10/13 13:12:13;;;;;;;0.60;0.40;;;;;;;;;;5074736;28;20070;-51
2021/10/13 13:14:40;;;;;;;1.45;0.60;;;;;;;;;;5074516;28;20035;-51
2021/10/13 13:17:06;;;;;;;1.00;0.38;;;;;;;;;;5074109;28;20021;-51
2021/10/13 13:19:32;;;;;;;0.68;0.20;;;;;;;;;;5069060;28;20529;-53
2021/10/13 13:21:58;;;;;;;1.15;0.52;;;;;;;;;;5070146;28;20146;-52
2021/10/13 13:24:25;;;;;;;0.88;0.40;;;;;;;;;;5066394;28;20021;-52
2021/10/13 13:26:51;;;;;;;0.95;0.50;;;;;;;;;;5061959;28;20100;-53
2021/10/13 13:29:17;;;;;;;1.05;0.38;;;;;;;;;;5072177;28;20109;-51
2021/10/13 13:31:43;;;;;;;0.88;0.38;;;;;;;;;;5071532;28;20527;-51
2021/10/13 13:34:10;;;;;;;1.45;0.70;;;;;;;;;;5076682;28;20033;-51
2021/10/13 13:36:36;;;;;;;0.75;0.25;;;;;;;;;;5074644;28;20509;-53
2021/10/13 13:39:02;;;;;;;1.27;0.35;;;;;;;;;;5076571;28;20032;-50
2021/10/13 13:41:28;;;;;;;0.40;0.20;;;;;;;;;;5066928;28;20112;-51
2021/10/13 13:43:54;;;;;;;0.25;0.20;;;;;;;;;;5074448;28;20472;-51
2021/10/13 13:46:20;;;;;;;0.88;0.30;;;;;;;;;;5073567;28;20039;-52
2021/10/13 13:48:47;;;;;;;0.65;0.20;;;;;;;;;;5074749;28;20113;-53
2021/10/13 13:51:14;;;;;;;1.33;0.30;;;;;;;;;;5063129;28;20033;-53
2021/10/13 13:53:40;;;;;;;1.15;0.70;;;;;;;;;;5071052;28;20098;-50
2021/10/13 13:56:07;;;;;;;1.45;0.30;;;;;;;;;;5067536;28;20021;-51
2021/10/13 13:58:33;;;;;;;0.28;0.15;;;;;;;;;;5064057;28;20032;-51
2021/10/13 14:00:59;;;;;;;0.40;0.20;;;;;;;;;;5063450;28;20104;-54
2021/10/13 14:03:25;;;;;;;0.40;0.20;;;;;;;;;;5069408;28;20037;-50
2021/10/13 14:05:51;;;;;;;0.68;0.30;;;;;;;;;;5067803;28;20021;-50
2021/10/13 14:08:17;;;;;;;0.28;0.20;;;;;;;;;;5071530;28;20376;-50
2021/10/13 14:10:44;;;;;;;1.20;0.20;;;;;;;;;;5075926;28;20028;-51
2021/10/13 14:13:10;;;;;;;1.35;0.57;;;;;;;;;;5067819;28;20113;-52
2021/10/13 14:15:36;;;;;;;0.50;0.30;;;;;;;;;;5073039;28;20028;-51
2021/10/13 14:18:03;;;;;;;0.55;0.10;;;;;;;;;;5071434;28;20055;-52
2021/10/13 14:20:29;;;;;;;1.50;0.40;;;;;;;;;;5064469;28;20534;-50
2021/10/13 14:22:55;;;;;;;0.68;0.20;;;;;;;;;;5070220;28;20029;-53
2021/10/13 14:25:21;;;;;;;0.70;0.35;;;;;;;;;;5066936;28;20551;-50
2021/10/13 14:27:47;;;;;;;0.10;0.00;;;;;;;;;;5072395;28;20020;-50
2021/10/13 14:30:13;;;;;;;0.43;0.10;;;;;;;;;;5066640;28;20041;-49
2021/10/13 14:32:39;;;;;;;0.32;0.20;;;;;;;;;;5073121;28;20107;-50
2021/10/13 14:35:06;;;;;;;1.67;0.60;;;;;;;;;;5071925;28;20106;-54
2021/10/13 14:37:32;;;;;;;3.60;0.52;;;;;;;;;;5066352;28;20469;-51
2021/10/13 14:39:58;;;;;;;1.27;0.50;;;;;;;;;;5061786;28;20032;-52
2021/10/13 14:42:25;;;;;;;0.40;0.30;;;;;;;;;;5067629;28;20461;-53
2021/10/13 14:44:53;;;;;;;3.53;0.38;;;;;;;;;;5078995;28;20035;-52
2021/10/13 14:47:19;;;;;;;0.38;0.30;;;;;;;;;;5067413;28;20029;-50